sensor_id;sensor_type;location;lat;lon;timestamp;pressure;altitude;pressure_sealevel;temperature;humidity
74716;BME280;63234;37.558;127.058;2024-01-30T00:00:20;101521.22;;;1.19;100.00
74716;BME280;63234;37.558;127.058;2024-01-30T00:02:46;101517.66;;;1.20;100.00
74716;BME280;63234;37.558;127.058;2024-01-30T00:05:11;101521.31;;;1.29;100.00
74716;BME280;63234;37.558;127.058;2024-01-30T00:07:37;101523.41;;;1.35;100.00
74716;BME280;63234;37.558;127.058;2024-01-30T00:10:02;101518.13;;;1.46;99.77
74716;BME280;63234;37.558;127.058;2024-01-30T00:12:28;101518.13;;;1.46;100.00
74716;BME280;63234;37.558;127.058;2024-01-30T00:14:53;101527.19;;;1.42;100.00
74716;BME280;63234;37.558;127.058;2024-01-30T00:17:19;101523.28;;;1.36;100.00
74716;BME280;63234;37.558;127.058;2024-01-30T00:19:46;101515.81;;;1.32;100.00
74716;BME280;63234;37.558;127.058;2024-01-30T00:22:11;101513.69;;;1.26;100.00
74716;BME280;63234;37.558;127.058;2024-01-30T00:24:36;101519.88;;;1.25;100.00
74716;BME280;63234;37.558;127.058;2024-01-30T00:27:02;101512.50;;;1.19;100.00
74716;BME280;63234;37.558;127.058;2024-01-30T00:29:27;101510.41;;;1.12;100.00
74716;BME280;63234;37.558;127.058;2024-01-30T00:31:56;101509.13;;;1.07;100.00
74716;BME280;63234;37.558;127.058;2024-01-30T00:34:21;101512.09;;;1.13;100.00
74716;BME280;63234;37.558;127.058;2024-01-30T00:36:47;101515.84;;;1.21;100.00
74716;BME280;63234;37.558;127.058;2024-01-30T00:39:12;101510.56;;;1.32;100.00
74716;BME280;63234;37.558;127.058;2024-01-30T00:41:37;101514.03;;;1.53;100.00
74716;BME280;63234;37.558;127.058;2024-01-30T00:44:03;101515.63;;;1.66;98.93
74716;BME280;63234;37.558;127.058;2024-01-30T00:46:28;101516.44;;;1.66;98.40
74716;BME280;63234;37.558;127.058;2024-01-30T00:48:54;101511.25;;;1.55;98.01
74716;BME280;63234;37.558;127.058;2024-01-30T00:51:19;101514.78;;;1.44;98.44
74716;BME280;63234;37.558;127.058;2024-01-30T00:53:45;101511.75;;;1.28;98.89
74716;BME280;63234;37.558;127.058;2024-01-30T00:56:10;101525.63;;;1.19;99.50
74716;BME280;63234;37.558;127.058;2024-01-30T00:58:35;101519.88;;;1.25;98.32
74716;BME280;63234;37.558;127.058;2024-01-30T01:01:00;101517.66;;;1.20;99.02
74716;BME280;63234;37.558;127.058;2024-01-30T01:03:26;101514.00;;;1.11;99.18
74716;BME280;63234;37.558;127.058;2024-01-30T01:05:51;101516.38;;;1.03;99.18
74716;BME280;63234;37.558;127.058;2024-01-30T01:08:16;101513.59;;;0.95;99.15
74716;BME280;63234;37.558;127.058;2024-01-30T01:10:43;101517.84;;;0.96;99.90
74716;BME280;63234;37.558;127.058;2024-01-30T01:13:08;101522.50;;;1.04;99.63
74716;BME280;63234;37.558;127.058;2024-01-30T01:15:33;101523.50;;;1.12;98.93
74716;BME280;63234;37.558;127.058;2024-01-30T01:17:59;101514.16;;;0.99;99.47
74716;BME280;63234;37.558;127.058;2024-01-30T01:20:24;101524.25;;;1.03;99.47
74716;BME280;63234;37.558;127.058;2024-01-30T01:22:49;101524.97;;;1.05;99.61
74716;BME280;63234;37.558;127.058;2024-01-30T01:25:15;101523.88;;;1.08;98.74
74716;BME280;63234;37.558;127.058;2024-01-30T01:27:40;101521.88;;;1.00;99.55
74716;BME280;63234;37.558;127.058;2024-01-30T01:30:10;101522.88;;;0.88;99.01
74716;BME280;63234;37.558;127.058;2024-01-30T01:32:37;101521.44;;;0.95;99.34
74716;BME280;63234;37.558;127.058;2024-01-30T01:35:04;101521.44;;;0.95;99.46
74716;BME280;63234;37.558;127.058;2024-01-30T01:37:31;101516.31;;;0.94;99.59
74716;BME280;63234;37.558;127.058;2024-01-30T01:39:56;101521.72;;;0.81;99.63
74716;BME280;63234;37.558;127.058;2024-01-30T01:42:21;101518.88;;;0.73;99.76
74716;BME280;63234;37.558;127.058;2024-01-30T01:44:47;101519.38;;;0.66;99.84
74716;BME280;63234;37.558;127.058;2024-01-30T01:47:14;101512.59;;;0.64;100.00
74716;BME280;63234;37.558;127.058;2024-01-30T01:49:39;101516.31;;;0.61;100.00
74716;BME280;63234;37.558;127.058;2024-01-30T01:52:05;101518.06;;;0.61;100.00
74716;BME280;63234;37.558;127.058;2024-01-30T01:54:31;101514.03;;;0.57;100.00
74716;BME280;63234;37.558;127.058;2024-01-30T01:56:57;101515.09;;;0.65;100.00
74716;BME280;63234;37.558;127.058;2024-01-30T01:59:23;101514.63;;;0.60;100.00
74716;BME280;63234;37.558;127.058;2024-01-30T02:01:50;101513.06;;;0.58;100.00
74716;BME280;63234;37.558;127.058;2024-01-30T02:04:17;101509.03;;;0.65;100.00
74716;BME280;63234;37.558;127.058;2024-01-30T02:06:43;101512.25;;;0.57;100.00
74716;BME280;63234;37.558;127.058;2024-01-30T02:09:08;101510.44;;;0.58;100.00
74716;BME280;63234;37.558;127.058;2024-01-30T02:11:34;101502.97;;;0.53;100.00
74716;BME280;63234;37.558;127.058;2024-01-30T02:14:05;101506.31;;;0.55;100.00
74716;BME280;63234;37.558;127.058;2024-01-30T02:16:31;101503.47;;;0.47;100.00
74716;BME280;63234;37.558;127.058;2024-01-30T02:18:57;101506.34;;;0.33;100.00
74716;BME280;63234;37.558;127.058;2024-01-30T02:21:22;101499.19;;;0.46;100.00
74716;BME280;63234;37.558;127.058;2024-01-30T02:23:48;101504.19;;;0.49;100.00
74716;BME280;63234;37.558;127.058;2024-01-30T02:26:14;101508.22;;;0.53;100.00
74716;BME280;63234;37.558;127.058;2024-01-30T02:28:39;101506.34;;;0.44;100.00
74716;BME280;63234;37.558;127.058;2024-01-30T02:31:05;101502.06;;;0.43;100.00
74716;BME280;63234;37.558;127.058;2024-01-30T02:33:30;101501.94;;;0.33;100.00
74716;BME280;63234;37.558;127.058;2024-01-30T02:35:55;101506.09;;;0.36;100.00
74716;BME280;63234;37.558;127.058;2024-01-30T02:38:21;101504.91;;;0.40;100.00
74716;BME280;63234;37.558;127.058;2024-01-30T02:40:46;101510.25;;;0.50;100.00
74716;BME280;63234;37.558;127.058;2024-01-30T02:43:12;101511.75;;;0.63;100.00
74716;BME280;63234;37.558;127.058;2024-01-30T02:45:37;101516.25;;;0.73;100.00
74716;BME280;63234;37.558;127.058;2024-01-30T02:48:03;101516.72;;;0.78;100.00
74716;BME280;63234;37.558;127.058;2024-01-30T02:50:28;101510.78;;;0.76;100.00
74716;BME280;63234;37.558;127.058;2024-01-30T02:52:53;101510.94;;;0.52;100.00
74716;BME280;63234;37.558;127.058;2024-01-30T02:55:19;101511.56;;;0.55;100.00
74716;BME280;63234;37.558;127.058;2024-01-30T02:57:44;101517.28;;;0.49;100.00
74716;BME280;63234;37.558;127.058;2024-01-30T03:00:10;101510.84;;;0.53;100.00
74716;BME280;63234;37.558;127.058;2024-01-30T03:02:36;101511.06;;;0.61;100.00
74716;BME280;63234;37.558;127.058;2024-01-30T03:05:02;101506.06;;;0.58;100.00
74716;BME280;63234;37.558;127.058;2024-01-30T03:07:29;101505.34;;;0.56;100.00
74716;BME280;63234;37.558;127.058;2024-01-30T03:09:54;101507.16;;;0.56;100.00
74716;BME280;63234;37.558;127.058;2024-01-30T03:12:21;101512.88;;;0.50;100.00
74716;BME280;63234;37.558;127.058;2024-01-30T03:14:46;101508.22;;;0.53;100.00
74716;BME280;63234;37.558;127.058;2024-01-30T03:17:11;101511.56;;;0.55;100.00
74716;BME280;63234;37.558;127.058;2024-01-30T03:19:37;101512.81;;;0.61;100.00
74716;BME280;63234;37.558;127.058;2024-01-30T03:22:02;101515.66;;;0.80;100.00
74716;BME280;63234;37.558;127.058;2024-01-30T03:24:27;101519.38;;;0.66;100.00
74716;BME280;63234;37.558;127.058;2024-01-30T03:26:53;101517.72;;;0.65;99.90
74716;BME280;63234;37.558;127.058;2024-01-30T03:29:18;101517.72;;;0.65;99.85
74716;BME280;63234;37.558;127.058;2024-01-30T03:31:44;101522.22;;;0.63;99.39
74716;BME280;63234;37.558;127.058;2024-01-30T03:34:09;101513.78;;;0.71;99.24
74716;BME280;63234;37.558;127.058;2024-01-30T03:36:34;101518.75;;;0.74;99.43
74716;BME280;63234;37.558;127.058;2024-01-30T03:39:00;101519.28;;;0.57;99.13
74716;BME280;63234;37.558;127.058;2024-01-30T03:41:26;101519.13;;;0.69;99.13
74716;BME280;63234;37.558;127.058;2024-01-30T03:43:51;101516.31;;;0.61;99.14
74716;BME280;63234;37.558;127.058;2024-01-30T03:46:16;101506.56;;;0.52;99.62
74716;BME280;63234;37.558;127.058;2024-01-30T03:48:42;101505.72;;;0.52;99.29
74716;BME280;63234;37.558;127.058;2024-01-30T03:51:08;101517.16;;;0.39;99.43
74716;BME280;63234;37.558;127.058;2024-01-30T03:53:34;101503.28;;;0.28;100.00
74716;BME280;63234;37.558;127.058;2024-01-30T03:56:00;101508.59;;;0.15;100.00
74716;BME280;63234;37.558;127.058;2024-01-30T03:58:25;101513.59;;;0.18;100.00
74716;BME280;63234;37.558;127.058;2024-01-30T04:00:51;101509.09;;;0.09;100.00
74716;BME280;63234;37.558;127.058;2024-01-30T04:03:17;101506.59;;;0.07;100.00
74716;BME280;63234;37.558;127.058;2024-01-30T04:05:42;101518.97;;;0.16;100.00
74716;BME280;63234;37.558;127.058;2024-01-30T04:08:07;101512.03;;;0.38;100.00
74716;BME280;63234;37.558;127.058;2024-01-30T04:10:33;101511.09;;;0.39;100.00
74716;BME280;63234;37.558;127.058;2024-01-30T04:12:59;101509.91;;;0.32;100.00
74716;BME280;63234;37.558;127.058;2024-01-30T04:15:25;101509.31;;;0.17;100.00
74716;BME280;63234;37.558;127.058;2024-01-30T04:17:51;101506.72;;;0.17;100.00
74716;BME280;63234;37.558;127.058;2024-01-30T04:20:17;101510.28;;;0.16;100.00
74716;BME280;63234;37.558;127.058;2024-01-30T04:22:46;101510.88;;;0.19;100.00
74716;BME280;63234;37.558;127.058;2024-01-30T04:25:13;101515.50;;;0.05;100.00
74716;BME280;63234;37.558;127.058;2024-01-30T04:27:38;101511.59;;;-0.01;100.00
74716;BME280;63234;37.558;127.058;2024-01-30T04:30:05;101517.53;;;0.01;100.00
74716;BME280;63234;37.558;127.058;2024-01-30T04:32:30;101517.16;;;0.06;100.00
74716;BME280;63234;37.558;127.058;2024-01-30T04:34:55;101512.06;;;0.04;100.00
74716;BME280;63234;37.558;127.058;2024-01-30T04:37:21;101520.16;;;0.01;100.00
74716;BME280;63234;37.558;127.058;2024-01-30T04:39:46;101518.50;;;0.00;100.00
74716;BME280;63234;37.558;127.058;2024-01-30T04:42:12;101520.88;;;-0.08;100.00
74716;BME280;63234;37.558;127.058;2024-01-30T04:44:37;101514.91;;;-0.10;100.00
74716;BME280;63234;37.558;127.058;2024-01-30T04:47:03;101515.97;;;-0.13;100.00
74716;BME280;63234;37.558;127.058;2024-01-30T04:49:31;101517.41;;;-0.09;100.00
74716;BME280;63234;37.558;127.058;2024-01-30T04:51:57;101521.13;;;0.00;100.00
74716;BME280;63234;37.558;127.058;2024-01-30T04:54:23;101516.81;;;0.10;100.00
74716;BME280;63234;37.558;127.058;2024-01-30T04:56:48;101513.97;;;0.13;100.00
74716;BME280;63234;37.558;127.058;2024-01-30T04:59:13;101517.88;;;0.30;100.00
74716;BME280;63234;37.558;127.058;2024-01-30T05:01:39;101518.09;;;0.27;100.00
74716;BME280;63234;37.558;127.058;2024-01-30T05:04:07;101520.38;;;0.32;100.00
74716;BME280;63234;37.558;127.058;2024-01-30T05:06:33;101520.88;;;0.26;100.00
74716;BME280;63234;37.558;127.058;2024-01-30T05:08:58;101517.28;;;0.27;100.00
74716;BME280;63234;37.558;127.058;2024-01-30T05:11:23;101518.09;;;0.27;100.00
74716;BME280;63234;37.558;127.058;2024-01-30T05:13:49;101514.81;;;0.25;100.00
74716;BME280;63234;37.558;127.058;2024-01-30T05:16:14;101522.28;;;0.30;100.00
74716;BME280;63234;37.558;127.058;2024-01-30T05:18:39;101524.41;;;0.36;100.00
74716;BME280;63234;37.558;127.058;2024-01-30T05:21:05;101520.25;;;0.33;100.00
74716;BME280;63234;37.558;127.058;2024-01-30T05:23:30;101525.03;;;0.28;100.00
74716;BME280;63234;37.558;127.058;2024-01-30T05:25:56;101526.09;;;0.37;100.00
74716;BME280;63234;37.558;127.058;2024-01-30T05:28:21;101526.78;;;0.39;100.00
74716;BME280;63234;37.558;127.058;2024-01-30T05:30:47;101525.63;;;0.43;100.00
74716;BME280;63234;37.558;127.058;2024-01-30T05:33:12;101536.78;;;0.45;100.00
74716;BME280;63234;37.558;127.058;2024-01-30T05:35:38;101539.88;;;0.50;100.00
74716;BME280;63234;37.558;127.058;2024-01-30T05:38:04;101534.88;;;0.36;100.00
74716;BME280;63234;37.558;127.058;2024-01-30T05:40:32;101537.25;;;0.39;100.00
74716;BME280;63234;37.558;127.058;2024-01-30T05:42:57;101532.50;;;0.33;100.00
74716;BME280;63234;37.558;127.058;2024-01-30T05:45:27;101530.72;;;0.33;100.00
74716;BME280;63234;37.558;127.058;2024-01-30T05:47:53;101539.88;;;0.39;100.00
74716;BME280;63234;37.558;127.058;2024-01-30T05:50:21;101538.22;;;0.38;100.00
74716;BME280;63234;37.558;127.058;2024-01-30T05:52:48;101539.28;;;0.35;100.00
74716;BME280;63234;37.558;127.058;2024-01-30T05:55:14;101540.13;;;0.36;100.00
74716;BME280;63234;37.558;127.058;2024-01-30T05:57:39;101529.31;;;0.40;100.00
74716;BME280;63234;37.558;127.058;2024-01-30T06:00:06;101527.03;;;0.47;100.00
74716;BME280;63234;37.558;127.058;2024-01-30T06:02:32;101533.06;;;0.59;100.00
74716;BME280;63234;37.558;127.058;2024-01-30T06:04:58;101534.50;;;0.63;100.00
74716;BME280;63234;37.558;127.058;2024-01-30T06:07:23;101536.75;;;0.67;100.00
74716;BME280;63234;37.558;127.058;2024-01-30T06:09:49;101536.84;;;0.77;100.00
74716;BME280;63234;37.558;127.058;2024-01-30T06:12:14;101538.16;;;0.83;100.00
74716;BME280;63234;37.558;127.058;2024-01-30T06:14:39;101531.69;;;0.87;100.00
74716;BME280;63234;37.558;127.058;2024-01-30T06:17:05;101538.56;;;0.99;100.00
74716;BME280;63234;37.558;127.058;2024-01-30T06:19:31;101529.16;;;1.29;100.00
74716;BME280;63234;37.558;127.058;2024-01-30T06:21:56;101531.03;;;1.38;100.00
74716;BME280;63234;37.558;127.058;2024-01-30T06:24:22;101531.88;;;1.59;100.00
74716;BME280;63234;37.558;127.058;2024-01-30T06:26:47;101539.56;;;1.82;100.00
74716;BME280;63234;37.558;127.058;2024-01-30T06:29:12;101534.97;;;1.95;98.59
74716;BME280;63234;37.558;127.058;2024-01-30T06:31:40;101538.53;;;1.94;97.47
74716;BME280;63234;37.558;127.058;2024-01-30T06:34:07;101532.13;;;2.08;96.74
74716;BME280;63234;37.558;127.058;2024-01-30T06:36:32;101532.13;;;2.08;96.09
74716;BME280;63234;37.558;127.058;2024-01-30T06:38:58;101534.22;;;2.14;95.55
74716;BME280;63234;37.558;127.058;2024-01-30T06:41:23;101538.19;;;2.09;95.86
74716;BME280;63234;37.558;127.058;2024-01-30T06:43:49;101537.41;;;2.18;95.20
74716;BME280;63234;37.558;127.058;2024-01-30T06:46:15;101541.75;;;2.28;94.87
74716;BME280;63234;37.558;127.058;2024-01-30T06:48:40;101539.53;;;2.34;93.79
74716;BME280;63234;37.558;127.058;2024-01-30T06:51:06;101543.16;;;2.42;93.33
74716;BME280;63234;37.558;127.058;2024-01-30T06:53:31;101542.31;;;2.32;92.92
74716;BME280;63234;37.558;127.058;2024-01-30T06:55:57;101543.84;;;2.35;93.27
74716;BME280;63234;37.558;127.058;2024-01-30T06:58:22;101539.56;;;2.43;93.03
74716;BME280;63234;37.558;127.058;2024-01-30T07:00:48;101536.94;;;2.43;92.71
74716;BME280;63234;37.558;127.058;2024-01-30T07:03:13;101541.25;;;2.44;92.38
74716;BME280;63234;37.558;127.058;2024-01-30T07:05:38;101544.53;;;2.37;92.93
74716;BME280;63234;37.558;127.058;2024-01-30T07:08:04;101540.63;;;2.31;93.09
74716;BME280;63234;37.558;127.058;2024-01-30T07:10:29;101536.63;;;2.27;93.72
74716;BME280;63234;37.558;127.058;2024-01-30T07:12:56;101528.47;;;2.30;93.80
74716;BME280;63234;37.558;127.058;2024-01-30T07:15:22;101543.84;;;2.35;93.48
74716;BME280;63234;37.558;127.058;2024-01-30T07:17:47;101541.50;;;2.32;93.63
74716;BME280;63234;37.558;127.058;2024-01-30T07:20:12;101546.59;;;2.33;94.10
74716;BME280;63234;37.558;127.058;2024-01-30T07:22:38;101547.97;;;2.37;93.77
74716;BME280;63234;37.558;127.058;2024-01-30T07:25:04;101552.00;;;2.41;93.91
74716;BME280;63234;37.558;127.058;2024-01-30T07:27:29;101548.41;;;2.42;93.68
74716;BME280;63234;37.558;127.058;2024-01-30T07:29:55;101546.22;;;2.47;93.58
74716;BME280;63234;37.558;127.058;2024-01-30T07:32:20;101550.66;;;2.47;93.94
74716;BME280;63234;37.558;127.058;2024-01-30T07:34:45;101544.59;;;2.56;93.26
74716;BME280;63234;37.558;127.058;2024-01-30T07:37:11;101551.22;;;2.50;93.37
74716;BME280;63234;37.558;127.058;2024-01-30T07:39:40;101552.88;;;2.61;92.93
74716;BME280;63234;37.558;127.058;2024-01-30T07:42:06;101553.31;;;2.66;93.25
74716;BME280;63234;37.558;127.058;2024-01-30T07:44:31;101551.72;;;2.85;92.49
74716;BME280;63234;37.558;127.058;2024-01-30T07:46:56;101548.97;;;2.86;92.23
74716;BME280;63234;37.558;127.058;2024-01-30T07:49:22;101549.94;;;3.05;91.07
74716;BME280;63234;37.558;127.058;2024-01-30T07:51:47;101557.00;;;3.33;88.39
74716;BME280;63234;37.558;127.058;2024-01-30T07:54:14;101556.44;;;3.39;87.79
74716;BME280;63234;37.558;127.058;2024-01-30T07:56:40;101561.16;;;3.45;88.11
74716;BME280;63234;37.558;127.058;2024-01-30T07:59:05;101560.59;;;3.52;87.17
74716;BME280;63234;37.558;127.058;2024-01-30T08:01:30;101568.75;;;3.58;87.29
74716;BME280;63234;37.558;127.058;2024-01-30T08:03:56;101566.94;;;3.59;86.79
74716;BME280;63234;37.558;127.058;2024-01-30T08:06:21;101562.63;;;3.67;86.31
74716;BME280;63234;37.558;127.058;2024-01-30T08:08:46;101561.94;;;3.75;85.37
74716;BME280;63234;37.558;127.058;2024-01-30T08:11:12;101560.41;;;3.82;84.66
74716;BME280;63234;37.558;127.058;2024-01-30T08:13:37;101554.56;;;3.88;84.86
74716;BME280;63234;37.558;127.058;2024-01-30T08:16:03;101557.31;;;3.97;84.00
74716;BME280;63234;37.558;127.058;2024-01-30T08:18:29;101557.41;;;4.14;82.77
74716;BME280;63234;37.558;127.058;2024-01-30T08:20:54;101565.56;;;4.21;82.52
74716;BME280;63234;37.558;127.058;2024-01-30T08:23:20;101575.25;;;4.21;83.01
74716;BME280;63234;37.558;127.058;2024-01-30T08:25:45;101576.09;;;4.21;83.02
74716;BME280;63234;37.558;127.058;2024-01-30T08:28:10;101565.69;;;4.29;81.99
74716;BME280;63234;37.558;127.058;2024-01-30T08:30:36;101573.94;;;4.34;81.70
74716;BME280;63234;37.558;127.058;2024-01-30T08:33:01;101561.47;;;4.36;81.36
74716;BME280;63234;37.558;127.058;2024-01-30T08:35:26;101564.13;;;4.36;81.62
74716;BME280;63234;37.558;127.058;2024-01-30T08:37:52;101566.00;;;4.44;80.84
74716;BME280;63234;37.558;127.058;2024-01-30T08:40:19;101566.66;;;4.56;80.43
74716;BME280;63234;37.558;127.058;2024-01-30T08:42:44;101566.66;;;4.56;81.15
74716;BME280;63234;37.558;127.058;2024-01-30T08:45:10;101561.63;;;4.63;81.14
74716;BME280;63234;37.558;127.058;2024-01-30T08:47:35;101566.31;;;4.69;79.50
74716;BME280;63234;37.558;127.058;2024-01-30T08:50:00;101565.34;;;4.70;80.59
74716;BME280;63234;37.558;127.058;2024-01-30T08:52:26;101559.91;;;4.71;80.34
74716;BME280;63234;37.558;127.058;2024-01-30T08:54:51;101561.81;;;4.79;80.26
74716;BME280;63234;37.558;127.058;2024-01-30T08:57:17;101567.31;;;4.86;80.26
74716;BME280;63234;37.558;127.058;2024-01-30T08:59:42;101583.97;;;5.04;78.65
74716;BME280;63234;37.558;127.058;2024-01-30T09:02:10;101587.13;;;4.90;81.28
74716;BME280;63234;37.558;127.058;2024-01-30T09:04:37;101592.94;;;4.93;80.54
74716;BME280;63234;37.558;127.058;2024-01-30T09:07:03;101595.13;;;4.98;81.42
74716;BME280;63234;37.558;127.058;2024-01-30T09:09:30;101597.00;;;4.88;80.56
74716;BME280;63234;37.558;127.058;2024-01-30T09:11:55;101597.38;;;4.93;80.30
74716;BME280;63234;37.558;127.058;2024-01-30T09:14:20;101597.56;;;5.09;79.12
74716;BME280;63234;37.558;127.058;2024-01-30T09:16:46;101601.38;;;4.97;78.84
74716;BME280;63234;37.558;127.058;2024-01-30T09:19:13;101601.38;;;4.97;79.46
74716;BME280;63234;37.558;127.058;2024-01-30T09:21:38;101602.22;;;5.15;79.68
74716;BME280;63234;37.558;127.058;2024-01-30T09:24:04;101593.34;;;5.16;79.25
74716;BME280;63234;37.558;127.058;2024-01-30T09:26:30;101596.66;;;5.18;79.02
74716;BME280;63234;37.558;127.058;2024-01-30T09:28:55;101600.81;;;5.21;79.33
74716;BME280;63234;37.558;127.058;2024-01-30T09:31:21;101602.97;;;5.25;78.40
74716;BME280;63234;37.558;127.058;2024-01-30T09:33:46;101601.63;;;5.21;78.26
74716;BME280;63234;37.558;127.058;2024-01-30T09:36:13;101598.00;;;5.22;78.21
74716;BME280;63234;37.558;127.058;2024-01-30T09:38:44;101601.47;;;5.23;77.56
74716;BME280;63234;37.558;127.058;2024-01-30T09:41:09;101603.06;;;5.34;77.95
74716;BME280;63234;37.558;127.058;2024-01-30T09:43:38;101608.44;;;5.42;77.71
74716;BME280;63234;37.558;127.058;2024-01-30T09:46:11;101604.72;;;5.52;77.40
74716;BME280;63234;37.558;127.058;2024-01-30T09:48:46;101618.50;;;5.64;77.51
74716;BME280;63234;37.558;127.058;2024-01-30T09:51:14;101613.00;;;5.93;76.09
74716;BME280;63234;37.558;127.058;2024-01-30T09:53:40;101609.75;;;5.82;76.28
74716;BME280;63234;37.558;127.058;2024-01-30T09:56:07;101613.94;;;5.92;76.37
74716;BME280;63234;37.558;127.058;2024-01-30T09:58:32;101620.53;;;6.14;75.23
74716;BME280;63234;37.558;127.058;2024-01-30T10:00:58;101626.56;;;6.25;75.73
74716;BME280;63234;37.558;127.058;2024-01-30T10:03:23;101619.91;;;6.20;75.60
74716;BME280;63234;37.558;127.058;2024-01-30T10:05:51;101622.22;;;6.15;74.70
74716;BME280;63234;37.558;127.058;2024-01-30T10:08:18;101618.28;;;6.19;74.31
74716;BME280;63234;37.558;127.058;2024-01-30T10:10:46;101613.00;;;6.19;73.88
74716;BME280;63234;37.558;127.058;2024-01-30T10:13:11;101618.34;;;6.36;73.98
74716;BME280;63234;37.558;127.058;2024-01-30T10:15:37;101615.00;;;6.52;73.42
74716;BME280;63234;37.558;127.058;2024-01-30T10:18:04;101621.28;;;6.59;73.31
74716;BME280;63234;37.558;127.058;2024-01-30T10:20:32;101615.41;;;6.73;72.73
74716;BME280;63234;37.558;127.058;2024-01-30T10:22:58;101614.13;;;6.85;72.90
74716;BME280;63234;37.558;127.058;2024-01-30T10:25:23;101610.84;;;7.00;72.80
74716;BME280;63234;37.558;127.058;2024-01-30T10:27:55;101619.84;;;7.23;71.98
74716;BME280;63234;37.558;127.058;2024-01-30T10:30:21;101620.03;;;7.38;70.94
74716;BME280;63234;37.558;127.058;2024-01-30T10:32:47;101614.75;;;7.54;70.17
74716;BME280;63234;37.558;127.058;2024-01-30T10:35:13;101613.25;;;7.44;70.34
74716;BME280;63234;37.558;127.058;2024-01-30T10:37:38;101614.41;;;7.57;70.88
74716;BME280;63234;37.558;127.058;2024-01-30T10:40:04;101614.28;;;7.67;69.76
74716;BME280;63234;37.558;127.058;2024-01-30T10:42:32;101608.81;;;7.85;69.40
74716;BME280;63234;37.558;127.058;2024-01-30T10:45:06;101613.44;;;7.91;69.20
74716;BME280;63234;37.558;127.058;2024-01-30T10:47:35;101610.09;;;8.14;68.67
74716;BME280;63234;37.558;127.058;2024-01-30T10:50:04;101603.78;;;8.23;68.32
74716;BME280;63234;37.558;127.058;2024-01-30T10:52:31;101611.53;;;8.33;68.48
74716;BME280;63234;37.558;127.058;2024-01-30T10:54:58;101614.94;;;8.66;66.50
74716;BME280;63234;37.558;127.058;2024-01-30T10:57:25;101605.97;;;8.67;67.57
74716;BME280;63234;37.558;127.058;2024-01-30T10:59:56;101601.19;;;8.93;66.39
74716;BME280;63234;37.558;127.058;2024-01-30T11:02:22;101605.81;;;9.00;65.67
74716;BME280;63234;37.558;127.058;2024-01-30T11:04:49;101605.94;;;9.06;65.73
74716;BME280;63234;37.558;127.058;2024-01-30T11:07:18;101594.16;;;9.32;65.70
74716;BME280;63234;37.558;127.058;2024-01-30T11:09:53;101602.97;;;9.70;64.15
74716;BME280;63234;37.558;127.058;2024-01-30T11:12:28;101597.56;;;10.16;63.71
74716;BME280;63234;37.558;127.058;2024-01-30T11:15:04;101594.81;;;10.84;61.56
74716;BME280;63234;37.558;127.058;2024-01-30T11:20:20;101595.31;;;10.57;61.03
74716;BME280;63234;37.558;127.058;2024-01-30T11:22:47;101600.81;;;10.56;60.70
74716;BME280;63234;37.558;127.058;2024-01-30T11:25:14;101595.13;;;10.29;61.80
74716;BME280;63234;37.558;127.058;2024-01-30T11:27:41;101602.22;;;10.88;60.69
74716;BME280;63234;37.558;127.058;2024-01-30T11:30:07;101602.97;;;11.18;58.46
74716;BME280;63234;37.558;127.058;2024-01-30T11:32:33;101600.28;;;10.97;60.35
74716;BME280;63234;37.558;127.058;2024-01-30T11:34:58;101593.00;;;10.40;61.10
74716;BME280;63234;37.558;127.058;2024-01-30T11:37:25;101592.00;;;10.41;61.41
74716;BME280;63234;37.558;127.058;2024-01-30T11:39:53;101591.06;;;10.19;62.31
74716;BME280;63234;37.558;127.058;2024-01-30T11:42:19;101590.81;;;10.28;61.93
74716;BME280;63234;37.558;127.058;2024-01-30T11:44:48;101592.47;;;10.29;61.01
74716;BME280;63234;37.558;127.058;2024-01-30T11:47:14;101592.88;;;10.18;61.54
74716;BME280;63234;37.558;127.058;2024-01-30T11:49:40;101592.84;;;10.26;61.74
74716;BME280;63234;37.558;127.058;2024-01-30T11:52:05;101588.88;;;10.37;61.04
74716;BME280;63234;37.558;127.058;2024-01-30T11:54:31;101595.28;;;10.72;60.09
74716;BME280;63234;37.558;127.058;2024-01-30T11:56:56;101583.31;;;11.19;59.41
74716;BME280;63234;37.558;127.058;2024-01-30T11:59:22;101576.72;;;11.37;59.01
74716;BME280;63234;37.558;127.058;2024-01-30T12:01:47;101577.84;;;11.49;58.45
74716;BME280;63234;37.558;127.058;2024-01-30T12:04:13;101574.44;;;11.34;58.41
74716;BME280;63234;37.558;127.058;2024-01-30T12:06:38;101575.19;;;11.28;58.56
74716;BME280;63234;37.558;127.058;2024-01-30T12:09:04;101569.81;;;10.99;59.51
74716;BME280;63234;37.558;127.058;2024-01-30T12:11:30;101564.94;;;11.24;59.56
74716;BME280;63234;37.558;127.058;2024-01-30T12:13:56;101573.34;;;11.28;58.63
74716;BME280;63234;37.558;127.058;2024-01-30T12:16:21;101568.06;;;11.56;58.66
74716;BME280;63234;37.558;127.058;2024-01-30T12:18:47;101577.38;;;11.39;58.33
74716;BME280;63234;37.558;127.058;2024-01-30T12:21:16;101564.16;;;11.31;58.04
74716;BME280;63234;37.558;127.058;2024-01-30T12:23:41;101566.00;;;11.52;58.12
74716;BME280;63234;37.558;127.058;2024-01-30T12:26:07;101561.81;;;11.42;58.48
74716;BME280;63234;37.558;127.058;2024-01-30T12:28:33;101563.59;;;11.57;58.66
74716;BME280;63234;37.558;127.058;2024-01-30T12:31:03;101553.94;;;11.34;58.38